Black Lake, Canada
Current Conditions -  °F | °C
As of 9:00 PM on Friday 24 Oct 2014 (Local Time) from CYSC Reporting Station
Overcast Overcast  
Wind Chill: 43°   Ceiling: 8000
Heat Index: 43°   Visibility: 9mi
Dew Point: 36°   Wind: 3mph
Humidity: 76%   Direction: 300°WNW
Pressure: 29.8"   Gusts: NA
Location:  46.03°N, 71.37°W
Report Text: CYSC 250100Z AUTO 30003KT 9SM OVC080 06/02 A2980 RMK SLP099
Loading
Personal Weather Stations






























Interactive Weather Map
Tropical Storm Tracking
New forecast layout! Learn more

10-Day Weather Forecast

Advertisements
Track Severe Weather on mobile